Terminal Aerodrome Forecast
Issued by NWS

Home | Current Version | Previous Version | Text Only | Print | Product List | Glossary On
Versions: 1 2 3 4 5 6 7 8 9 10 11 12 13 14 15 16 17 18 19 20 21 22 23 24 25 26
503
FTAK31 PAJN 212320
TAFAYA
TAF
PAYA 212320Z 2200/2224 09008KT 3SM -RA BR SCT012 OVC025
     FM220800 10005KT 2SM -RA BR BKN006 OVC012
     FM221300 09004KT 4SM BR BKN004 OVC010
     FM221800 11005KT P6SM OVC007
      AMD LTD TO CLD VIS AND WIND=

USA.gov is the U.S. government's official web portal to all federal, state and local government web resources and services.